sensor_id;sensor_type;location;lat;lon;timestamp;P1;durP1;ratioP1;P2;durP2;ratioP2
38853;SDS011;24606;51.992;4.198;2022-08-19T00:00:21;4.85;;;2.03;;
38853;SDS011;24606;51.992;4.198;2022-08-19T00:05:24;7.05;;;2.00;;
38853;SDS011;24606;51.992;4.198;2022-08-19T00:10:27;5.53;;;2.15;;
38853;SDS011;24606;51.992;4.198;2022-08-19T00:15:29;5.32;;;1.70;;
38853;SDS011;24606;51.992;4.198;2022-08-19T00:20:31;6.93;;;2.15;;
38853;SDS011;24606;51.992;4.198;2022-08-19T00:25:34;4.80;;;2.00;;
38853;SDS011;24606;51.992;4.198;2022-08-19T00:30:36;4.38;;;1.88;;
38853;SDS011;24606;51.992;4.198;2022-08-19T00:35:38;8.25;;;2.08;;
38853;SDS011;24606;51.992;4.198;2022-08-19T00:40:43;4.80;;;1.80;;
38853;SDS011;24606;51.992;4.198;2022-08-19T00:45:46;3.63;;;1.55;;
38853;SDS011;24606;51.992;4.198;2022-08-19T00:50:50;2.70;;;1.70;;
38853;SDS011;24606;51.992;4.198;2022-08-19T00:55:58;3.55;;;1.58;;
38853;SDS011;24606;51.992;4.198;2022-08-19T01:01:02;2.80;;;1.58;;
38853;SDS011;24606;51.992;4.198;2022-08-19T01:06:05;1.75;;;1.35;;
38853;SDS011;24606;51.992;4.198;2022-08-19T01:11:08;5.13;;;1.15;;
38853;SDS011;24606;51.992;4.198;2022-08-19T01:16:10;6.10;;;2.00;;
38853;SDS011;24606;51.992;4.198;2022-08-19T01:21:16;1.60;;;1.33;;
38853;SDS011;24606;51.992;4.198;2022-08-19T01:26:24;3.40;;;1.85;;
38853;SDS011;24606;51.992;4.198;2022-08-19T01:31:28;2.63;;;1.92;;
38853;SDS011;24606;51.992;4.198;2022-08-19T01:36:33;2.20;;;1.70;;
38853;SDS011;24606;51.992;4.198;2022-08-19T01:41:37;2.65;;;1.90;;
38853;SDS011;24606;51.992;4.198;2022-08-19T01:46:40;1.67;;;1.42;;
38853;SDS011;24606;51.992;4.198;2022-08-19T01:51:43;2.35;;;2.15;;
38853;SDS011;24606;51.992;4.198;2022-08-19T01:56:46;2.97;;;1.80;;
38853;SDS011;24606;51.992;4.198;2022-08-19T02:01:48;2.90;;;2.15;;
38853;SDS011;24606;51.992;4.198;2022-08-19T02:06:50;3.08;;;2.53;;
38853;SDS011;24606;51.992;4.198;2022-08-19T02:11:54;3.22;;;2.45;;
38853;SDS011;24606;51.992;4.198;2022-08-19T02:16:56;4.03;;;2.65;;
38853;SDS011;24606;51.992;4.198;2022-08-19T02:21:58;4.53;;;2.67;;
38853;SDS011;24606;51.992;4.198;2022-08-19T02:27:01;4.40;;;2.40;;
38853;SDS011;24606;51.992;4.198;2022-08-19T02:32:03;2.90;;;2.33;;
38853;SDS011;24606;51.992;4.198;2022-08-19T02:37:05;3.28;;;2.50;;
38853;SDS011;24606;51.992;4.198;2022-08-19T02:42:28;4.00;;;2.47;;
38853;SDS011;24606;51.992;4.198;2022-08-19T02:47:31;4.35;;;2.58;;
38853;SDS011;24606;51.992;4.198;2022-08-19T02:52:33;2.75;;;2.50;;
38853;SDS011;24606;51.992;4.198;2022-08-19T02:57:36;2.90;;;2.25;;
38853;SDS011;24606;51.992;4.198;2022-08-19T03:02:38;3.92;;;2.38;;
38853;SDS011;24606;51.992;4.198;2022-08-19T03:07:40;6.53;;;2.92;;
38853;SDS011;24606;51.992;4.198;2022-08-19T03:12:44;2.72;;;2.45;;
38853;SDS011;24606;51.992;4.198;2022-08-19T03:17:46;3.88;;;2.50;;
38853;SDS011;24606;51.992;4.198;2022-08-19T03:22:47;4.43;;;2.65;;
38853;SDS011;24606;51.992;4.198;2022-08-19T03:27:51;3.53;;;2.65;;
38853;SDS011;24606;51.992;4.198;2022-08-19T03:32:52;4.20;;;2.67;;
38853;SDS011;24606;51.992;4.198;2022-08-19T03:37:54;14.80;;;8.60;;
38853;SDS011;24606;51.992;4.198;2022-08-19T03:42:58;4.32;;;3.50;;
38853;SDS011;24606;51.992;4.198;2022-08-19T03:48:00;4.13;;;3.17;;
38853;SDS011;24606;51.992;4.198;2022-08-19T03:53:02;5.72;;;3.47;;
38853;SDS011;24606;51.992;4.198;2022-08-19T03:58:06;6.25;;;4.30;;
38853;SDS011;24606;51.992;4.198;2022-08-19T04:03:08;7.65;;;3.83;;
38853;SDS011;24606;51.992;4.198;2022-08-19T04:08:10;4.55;;;3.70;;
38853;SDS011;24606;51.992;4.198;2022-08-19T04:13:13;5.68;;;3.90;;
38853;SDS011;24606;51.992;4.198;2022-08-19T04:18:15;4.22;;;3.72;;
38853;SDS011;24606;51.992;4.198;2022-08-19T04:23:17;4.60;;;3.90;;
38853;SDS011;24606;51.992;4.198;2022-08-19T04:28:21;8.02;;;3.95;;
38853;SDS011;24606;51.992;4.198;2022-08-19T04:33:24;5.90;;;4.30;;
38853;SDS011;24606;51.992;4.198;2022-08-19T04:38:28;5.22;;;3.85;;
38853;SDS011;24606;51.992;4.198;2022-08-19T04:43:32;9.18;;;5.50;;
38853;SDS011;24606;51.992;4.198;2022-08-19T04:48:34;7.63;;;5.63;;
38853;SDS011;24606;51.992;4.198;2022-08-19T04:53:37;9.85;;;5.93;;
38853;SDS011;24606;51.992;4.198;2022-08-19T04:58:42;11.93;;;6.22;;
38853;SDS011;24606;51.992;4.198;2022-08-19T05:03:46;11.95;;;6.15;;
38853;SDS011;24606;51.992;4.198;2022-08-19T05:08:48;10.15;;;4.90;;
38853;SDS011;24606;51.992;4.198;2022-08-19T05:13:52;9.15;;;4.88;;
38853;SDS011;24606;51.992;4.198;2022-08-19T05:18:54;12.57;;;6.38;;
38853;SDS011;24606;51.992;4.198;2022-08-19T05:24:14;11.02;;;4.97;;
38853;SDS011;24606;51.992;4.198;2022-08-19T05:29:18;7.55;;;4.55;;
38853;SDS011;24606;51.992;4.198;2022-08-19T05:34:23;10.18;;;4.25;;
38853;SDS011;24606;51.992;4.198;2022-08-19T05:39:26;7.85;;;3.70;;
38853;SDS011;24606;51.992;4.198;2022-08-19T05:44:32;11.07;;;4.70;;
38853;SDS011;24606;51.992;4.198;2022-08-19T05:49:37;8.15;;;4.07;;
38853;SDS011;24606;51.992;4.198;2022-08-19T05:54:39;15.73;;;4.85;;
38853;SDS011;24606;51.992;4.198;2022-08-19T05:59:44;4.22;;;3.05;;
38853;SDS011;24606;51.992;4.198;2022-08-19T06:04:51;11.25;;;3.55;;
38853;SDS011;24606;51.992;4.198;2022-08-19T06:09:53;10.75;;;4.03;;
38853;SDS011;24606;51.992;4.198;2022-08-19T06:14:56;10.43;;;4.18;;
38853;SDS011;24606;51.992;4.198;2022-08-19T06:20:00;13.98;;;3.97;;
38853;SDS011;24606;51.992;4.198;2022-08-19T06:25:02;12.02;;;3.67;;
38853;SDS011;24606;51.992;4.198;2022-08-19T06:30:07;10.23;;;4.20;;
38853;SDS011;24606;51.992;4.198;2022-08-19T06:35:10;5.95;;;3.20;;
38853;SDS011;24606;51.992;4.198;2022-08-19T06:40:13;11.35;;;3.30;;
38853;SDS011;24606;51.992;4.198;2022-08-19T06:45:17;9.63;;;3.47;;
38853;SDS011;24606;51.992;4.198;2022-08-19T06:50:20;7.63;;;3.58;;
38853;SDS011;24606;51.992;4.198;2022-08-19T06:55:22;6.40;;;3.50;;
38853;SDS011;24606;51.992;4.198;2022-08-19T07:00:25;9.52;;;3.13;;
38853;SDS011;24606;51.992;4.198;2022-08-19T07:05:27;11.73;;;3.53;;
38853;SDS011;24606;51.992;4.198;2022-08-19T07:10:29;10.60;;;4.78;;
38853;SDS011;24606;51.992;4.198;2022-08-19T07:15:34;9.30;;;4.38;;
38853;SDS011;24606;51.992;4.198;2022-08-19T07:20:37;9.95;;;3.90;;
38853;SDS011;24606;51.992;4.198;2022-08-19T07:25:40;10.57;;;3.67;;
38853;SDS011;24606;51.992;4.198;2022-08-19T07:30:44;11.43;;;4.32;;
38853;SDS011;24606;51.992;4.198;2022-08-19T07:35:46;10.00;;;3.92;;
38853;SDS011;24606;51.992;4.198;2022-08-19T07:40:47;8.82;;;3.25;;
38853;SDS011;24606;51.992;4.198;2022-08-19T07:45:52;6.15;;;2.92;;
38853;SDS011;24606;51.992;4.198;2022-08-19T07:50:58;8.45;;;3.95;;
38853;SDS011;24606;51.992;4.198;2022-08-19T07:56:02;5.55;;;3.65;;
38853;SDS011;24606;51.992;4.198;2022-08-19T08:01:06;9.18;;;4.05;;
38853;SDS011;24606;51.992;4.198;2022-08-19T08:06:11;8.10;;;4.65;;
38853;SDS011;24606;51.992;4.198;2022-08-19T08:11:31;7.30;;;3.88;;
38853;SDS011;24606;51.992;4.198;2022-08-19T08:16:35;15.95;;;3.92;;
38853;SDS011;24606;51.992;4.198;2022-08-19T08:21:38;9.90;;;4.65;;
38853;SDS011;24606;51.992;4.198;2022-08-19T08:26:39;5.75;;;3.17;;
38853;SDS011;24606;51.992;4.198;2022-08-19T08:31:43;11.18;;;3.75;;
38853;SDS011;24606;51.992;4.198;2022-08-19T08:36:46;6.25;;;2.90;;
38853;SDS011;24606;51.992;4.198;2022-08-19T08:41:50;4.65;;;2.50;;
38853;SDS011;24606;51.992;4.198;2022-08-19T08:46:59;6.50;;;3.47;;
38853;SDS011;24606;51.992;4.198;2022-08-19T08:52:04;7.72;;;3.08;;
38853;SDS011;24606;51.992;4.198;2022-08-19T08:57:09;5.55;;;2.33;;
38853;SDS011;24606;51.992;4.198;2022-08-19T09:02:16;6.20;;;2.97;;
38853;SDS011;24606;51.992;4.198;2022-08-19T09:07:21;11.13;;;2.90;;
38853;SDS011;24606;51.992;4.198;2022-08-19T09:12:30;7.25;;;2.60;;
38853;SDS011;24606;51.992;4.198;2022-08-19T09:17:39;8.20;;;3.13;;
38853;SDS011;24606;51.992;4.198;2022-08-19T09:22:41;7.88;;;2.30;;
38853;SDS011;24606;51.992;4.198;2022-08-19T09:27:44;6.57;;;2.60;;
38853;SDS011;24606;51.992;4.198;2022-08-19T09:32:48;5.13;;;2.00;;
38853;SDS011;24606;51.992;4.198;2022-08-19T09:37:53;5.70;;;2.03;;
38853;SDS011;24606;51.992;4.198;2022-08-19T09:42:57;6.70;;;2.17;;
38853;SDS011;24606;51.992;4.198;2022-08-19T09:48:04;6.18;;;2.40;;
38853;SDS011;24606;51.992;4.198;2022-08-19T09:53:07;2.92;;;1.50;;
38853;SDS011;24606;51.992;4.198;2022-08-19T09:58:09;6.57;;;1.80;;
38853;SDS011;24606;51.992;4.198;2022-08-19T10:03:12;3.92;;;1.75;;
38853;SDS011;24606;51.992;4.198;2022-08-19T10:08:14;4.72;;;2.35;;
38853;SDS011;24606;51.992;4.198;2022-08-19T10:13:19;4.05;;;1.60;;
38853;SDS011;24606;51.992;4.198;2022-08-19T10:18:26;5.15;;;1.88;;
38853;SDS011;24606;51.992;4.198;2022-08-19T10:23:28;5.28;;;1.70;;
38853;SDS011;24606;51.992;4.198;2022-08-19T10:28:30;2.60;;;1.20;;
38853;SDS011;24606;51.992;4.198;2022-08-19T10:33:35;2.60;;;1.35;;
38853;SDS011;24606;51.992;4.198;2022-08-19T10:38:37;2.47;;;1.27;;
38853;SDS011;24606;51.992;4.198;2022-08-19T10:43:45;3.15;;;1.40;;
38853;SDS011;24606;51.992;4.198;2022-08-19T10:48:51;6.65;;;1.52;;
38853;SDS011;24606;51.992;4.198;2022-08-19T10:53:54;7.35;;;1.60;;
38853;SDS011;24606;51.992;4.198;2022-08-19T10:58:57;4.95;;;1.55;;
38853;SDS011;24606;51.992;4.198;2022-08-19T11:04:01;2.63;;;0.95;;
38853;SDS011;24606;51.992;4.198;2022-08-19T11:09:04;9.98;;;1.85;;
38853;SDS011;24606;51.992;4.198;2022-08-19T11:14:07;3.50;;;1.50;;
38853;SDS011;24606;51.992;4.198;2022-08-19T11:19:11;2.70;;;1.15;;
38853;SDS011;24606;51.992;4.198;2022-08-19T11:24:15;1.48;;;1.05;;
38853;SDS011;24606;51.992;4.198;2022-08-19T11:29:20;2.38;;;1.40;;
38853;SDS011;24606;51.992;4.198;2022-08-19T11:34:27;3.42;;;1.52;;
38853;SDS011;24606;51.992;4.198;2022-08-19T11:39:30;8.70;;;1.73;;
38853;SDS011;24606;51.992;4.198;2022-08-19T11:44:34;3.75;;;1.33;;
38853;SDS011;24606;51.992;4.198;2022-08-19T11:49:37;2.28;;;1.40;;
38853;SDS011;24606;51.992;4.198;2022-08-19T11:54:39;3.40;;;1.20;;
38853;SDS011;24606;51.992;4.198;2022-08-19T11:59:41;3.75;;;1.42;;
38853;SDS011;24606;51.992;4.198;2022-08-19T12:04:44;3.92;;;1.80;;
38853;SDS011;24606;51.992;4.198;2022-08-19T12:09:46;3.50;;;1.27;;
38853;SDS011;24606;51.992;4.198;2022-08-19T12:14:48;3.05;;;1.38;;
38853;SDS011;24606;51.992;4.198;2022-08-19T12:19:57;1.10;;;1.00;;
38853;SDS011;24606;51.992;4.198;2022-08-19T12:24:59;1.33;;;1.15;;
38853;SDS011;24606;51.992;4.198;2022-08-19T12:30:01;2.17;;;1.08;;
38853;SDS011;24606;51.992;4.198;2022-08-19T12:35:05;1.55;;;0.80;;
38853;SDS011;24606;51.992;4.198;2022-08-19T12:40:09;1.08;;;0.73;;
38853;SDS011;24606;51.992;4.198;2022-08-19T12:45:12;4.43;;;1.08;;
38853;SDS011;24606;51.992;4.198;2022-08-19T12:50:16;2.00;;;0.85;;
38853;SDS011;24606;51.992;4.198;2022-08-19T12:55:18;1.17;;;0.82;;
38853;SDS011;24606;51.992;4.198;2022-08-19T13:00:20;1.25;;;0.85;;
38853;SDS011;24606;51.992;4.198;2022-08-19T13:05:26;1.63;;;1.00;;
38853;SDS011;24606;51.992;4.198;2022-08-19T13:10:30;2.05;;;1.20;;
38853;SDS011;24606;51.992;4.198;2022-08-19T13:15:35;1.60;;;0.80;;
38853;SDS011;24606;51.992;4.198;2022-08-19T13:20:41;2.80;;;0.82;;
38853;SDS011;24606;51.992;4.198;2022-08-19T13:25:43;2.22;;;1.13;;
38853;SDS011;24606;51.992;4.198;2022-08-19T13:30:46;2.20;;;1.20;;
38853;SDS011;24606;51.992;4.198;2022-08-19T13:41:09;2.00;;;0.73;;
38853;SDS011;24606;51.992;4.198;2022-08-19T13:46:11;2.45;;;1.20;;
38853;SDS011;24606;51.992;4.198;2022-08-19T13:51:15;3.13;;;1.00;;
38853;SDS011;24606;51.992;4.198;2022-08-19T13:56:18;1.83;;;0.88;;
38853;SDS011;24606;51.992;4.198;2022-08-19T14:01:21;1.75;;;1.10;;
38853;SDS011;24606;51.992;4.198;2022-08-19T14:06:26;5.70;;;1.73;;
38853;SDS011;24606;51.992;4.198;2022-08-19T14:11:27;1.35;;;0.73;;
38853;SDS011;24606;51.992;4.198;2022-08-19T14:16:29;1.65;;;0.70;;
38853;SDS011;24606;51.992;4.198;2022-08-19T14:21:33;1.85;;;1.17;;
38853;SDS011;24606;51.992;4.198;2022-08-19T14:26:36;8.23;;;1.63;;
38853;SDS011;24606;51.992;4.198;2022-08-19T14:31:38;2.42;;;1.30;;
38853;SDS011;24606;51.992;4.198;2022-08-19T14:36:43;5.60;;;1.45;;
38853;SDS011;24606;51.992;4.198;2022-08-19T14:41:46;15.73;;;2.40;;
38853;SDS011;24606;51.992;4.198;2022-08-19T14:46:47;8.25;;;2.97;;
38853;SDS011;24606;51.992;4.198;2022-08-19T14:51:51;9.68;;;3.63;;
38853;SDS011;24606;51.992;4.198;2022-08-19T14:56:53;7.13;;;2.83;;
38853;SDS011;24606;51.992;4.198;2022-08-19T15:01:55;6.65;;;2.53;;
38853;SDS011;24606;51.992;4.198;2022-08-19T15:06:58;3.97;;;1.48;;
38853;SDS011;24606;51.992;4.198;2022-08-19T15:12:00;4.72;;;2.03;;
38853;SDS011;24606;51.992;4.198;2022-08-19T15:17:02;4.97;;;1.73;;
38853;SDS011;24606;51.992;4.198;2022-08-19T15:22:06;2.67;;;1.17;;
38853;SDS011;24606;51.992;4.198;2022-08-19T15:27:08;5.68;;;1.55;;
38853;SDS011;24606;51.992;4.198;2022-08-19T15:32:10;1.30;;;0.75;;
38853;SDS011;24606;51.992;4.198;2022-08-19T15:37:13;2.70;;;1.05;;
38853;SDS011;24606;51.992;4.198;2022-08-19T15:42:15;3.03;;;1.10;;
38853;SDS011;24606;51.992;4.198;2022-08-19T15:47:17;4.15;;;0.95;;
38853;SDS011;24606;51.992;4.198;2022-08-19T15:52:21;1.75;;;1.00;;
38853;SDS011;24606;51.992;4.198;2022-08-19T15:57:22;2.15;;;1.05;;
38853;SDS011;24606;51.992;4.198;2022-08-19T16:02:42;2.85;;;1.30;;
38853;SDS011;24606;51.992;4.198;2022-08-19T16:08:03;2.75;;;1.30;;
38853;SDS011;24606;51.992;4.198;2022-08-19T16:13:05;1.60;;;1.10;;
38853;SDS011;24606;51.992;4.198;2022-08-19T16:18:08;3.28;;;0.77;;
38853;SDS011;24606;51.992;4.198;2022-08-19T16:23:11;4.13;;;1.55;;
38853;SDS011;24606;51.992;4.198;2022-08-19T16:28:13;2.15;;;1.13;;
38853;SDS011;24606;51.992;4.198;2022-08-19T16:33:15;2.90;;;0.82;;
38853;SDS011;24606;51.992;4.198;2022-08-19T16:38:18;3.42;;;1.38;;
38853;SDS011;24606;51.992;4.198;2022-08-19T16:43:21;1.73;;;1.20;;
38853;SDS011;24606;51.992;4.198;2022-08-19T16:48:25;0.95;;;0.70;;
38853;SDS011;24606;51.992;4.198;2022-08-19T16:53:30;3.33;;;1.00;;
38853;SDS011;24606;51.992;4.198;2022-08-19T16:58:32;2.92;;;1.40;;
38853;SDS011;24606;51.992;4.198;2022-08-19T17:03:34;2.50;;;1.35;;
38853;SDS011;24606;51.992;4.198;2022-08-19T17:08:40;4.00;;;1.42;;
38853;SDS011;24606;51.992;4.198;2022-08-19T17:13:42;2.00;;;1.10;;
38853;SDS011;24606;51.992;4.198;2022-08-19T17:18:44;1.48;;;1.30;;
38853;SDS011;24606;51.992;4.198;2022-08-19T17:23:47;1.13;;;0.80;;
38853;SDS011;24606;51.992;4.198;2022-08-19T17:28:50;1.65;;;1.30;;
38853;SDS011;24606;51.992;4.198;2022-08-19T17:33:54;6.60;;;2.97;;
38853;SDS011;24606;51.992;4.198;2022-08-19T17:39:01;9.55;;;3.03;;
38853;SDS011;24606;51.992;4.198;2022-08-19T17:44:04;9.43;;;3.90;;
38853;SDS011;24606;51.992;4.198;2022-08-19T17:49:06;10.95;;;3.65;;
38853;SDS011;24606;51.992;4.198;2022-08-19T17:54:10;6.45;;;2.55;;
38853;SDS011;24606;51.992;4.198;2022-08-19T17:59:14;6.43;;;2.00;;
38853;SDS011;24606;51.992;4.198;2022-08-19T18:04:16;4.70;;;1.95;;
38853;SDS011;24606;51.992;4.198;2022-08-19T18:09:20;5.63;;;1.58;;
38853;SDS011;24606;51.992;4.198;2022-08-19T18:14:23;5.75;;;1.58;;
38853;SDS011;24606;51.992;4.198;2022-08-19T18:19:27;4.68;;;1.40;;
38853;SDS011;24606;51.992;4.198;2022-08-19T18:24:30;5.10;;;1.33;;
38853;SDS011;24606;51.992;4.198;2022-08-19T18:29:32;3.92;;;1.33;;
38853;SDS011;24606;51.992;4.198;2022-08-19T18:34:37;3.33;;;1.30;;
38853;SDS011;24606;51.992;4.198;2022-08-19T18:39:41;2.70;;;0.98;;
38853;SDS011;24606;51.992;4.198;2022-08-19T18:45:01;4.25;;;1.30;;
38853;SDS011;24606;51.992;4.198;2022-08-19T18:50:20;4.22;;;1.17;;
38853;SDS011;24606;51.992;4.198;2022-08-19T18:55:24;4.75;;;1.10;;
38853;SDS011;24606;51.992;4.198;2022-08-19T19:00:27;5.07;;;1.40;;
38853;SDS011;24606;51.992;4.198;2022-08-19T19:05:29;3.10;;;0.90;;
38853;SDS011;24606;51.992;4.198;2022-08-19T19:10:32;2.03;;;0.98;;
38853;SDS011;24606;51.992;4.198;2022-08-19T19:15:35;4.20;;;1.20;;
38853;SDS011;24606;51.992;4.198;2022-08-19T19:20:38;4.47;;;1.40;;
38853;SDS011;24606;51.992;4.198;2022-08-19T19:25:41;11.18;;;1.45;;
38853;SDS011;24606;51.992;4.198;2022-08-19T19:30:44;8.73;;;1.42;;
38853;SDS011;24606;51.992;4.198;2022-08-19T19:35:46;12.98;;;1.63;;
38853;SDS011;24606;51.992;4.198;2022-08-19T19:40:49;7.93;;;1.60;;
38853;SDS011;24606;51.992;4.198;2022-08-19T19:45:51;10.15;;;2.72;;
38853;SDS011;24606;51.992;4.198;2022-08-19T19:50:52;11.60;;;1.40;;
38853;SDS011;24606;51.992;4.198;2022-08-19T19:55:56;7.38;;;1.33;;
38853;SDS011;24606;51.992;4.198;2022-08-19T20:00:58;8.82;;;1.60;;
38853;SDS011;24606;51.992;4.198;2022-08-19T20:06:01;3.72;;;1.20;;
38853;SDS011;24606;51.992;4.198;2022-08-19T20:11:05;5.60;;;1.13;;
38853;SDS011;24606;51.992;4.198;2022-08-19T20:16:07;4.53;;;0.88;;
38853;SDS011;24606;51.992;4.198;2022-08-19T20:21:10;2.17;;;0.90;;
38853;SDS011;24606;51.992;4.198;2022-08-19T20:26:14;4.47;;;1.10;;
38853;SDS011;24606;51.992;4.198;2022-08-19T20:31:19;5.82;;;1.00;;
38853;SDS011;24606;51.992;4.198;2022-08-19T20:36:21;6.68;;;1.45;;
38853;SDS011;24606;51.992;4.198;2022-08-19T20:41:25;6.30;;;1.40;;
38853;SDS011;24606;51.992;4.198;2022-08-19T20:46:27;5.30;;;1.08;;
38853;SDS011;24606;51.992;4.198;2022-08-19T20:51:29;5.40;;;0.95;;
38853;SDS011;24606;51.992;4.198;2022-08-19T20:56:33;8.75;;;1.38;;
38853;SDS011;24606;51.992;4.198;2022-08-19T21:01:35;2.97;;;1.00;;
38853;SDS011;24606;51.992;4.198;2022-08-19T21:06:37;5.50;;;1.42;;
38853;SDS011;24606;51.992;4.198;2022-08-19T21:11:40;5.43;;;0.80;;
38853;SDS011;24606;51.992;4.198;2022-08-19T21:16:43;5.30;;;0.90;;
38853;SDS011;24606;51.992;4.198;2022-08-19T21:21:46;2.47;;;0.77;;
38853;SDS011;24606;51.992;4.198;2022-08-19T21:26:49;2.83;;;1.02;;
38853;SDS011;24606;51.992;4.198;2022-08-19T21:31:51;4.00;;;0.88;;
38853;SDS011;24606;51.992;4.198;2022-08-19T21:36:53;1.67;;;0.50;;
38853;SDS011;24606;51.992;4.198;2022-08-19T21:41:56;5.32;;;1.15;;
38853;SDS011;24606;51.992;4.198;2022-08-19T21:46:58;0.98;;;0.40;;
38853;SDS011;24606;51.992;4.198;2022-08-19T21:52:00;1.48;;;0.57;;
38853;SDS011;24606;51.992;4.198;2022-08-19T21:57:03;2.45;;;0.60;;
38853;SDS011;24606;51.992;4.198;2022-08-19T22:02:06;0.65;;;0.50;;
38853;SDS011;24606;51.992;4.198;2022-08-19T22:07:09;1.52;;;0.75;;
38853;SDS011;24606;51.992;4.198;2022-08-19T22:12:20;1.27;;;0.73;;
38853;SDS011;24606;51.992;4.198;2022-08-19T22:17:24;0.50;;;0.30;;
38853;SDS011;24606;51.992;4.198;2022-08-19T22:22:28;1.27;;;0.55;;
38853;SDS011;24606;51.992;4.198;2022-08-19T22:27:34;2.10;;;0.73;;
38853;SDS011;24606;51.992;4.198;2022-08-19T22:32:36;1.13;;;0.50;;
38853;SDS011;24606;51.992;4.198;2022-08-19T22:37:38;1.70;;;0.50;;
38853;SDS011;24606;51.992;4.198;2022-08-19T22:42:42;0.40;;;0.40;;
38853;SDS011;24606;51.992;4.198;2022-08-19T22:47:44;1.33;;;0.50;;
38853;SDS011;24606;51.992;4.198;2022-08-19T22:52:45;1.25;;;0.47;;
38853;SDS011;24606;51.992;4.198;2022-08-19T22:57:49;1.02;;;0.30;;
38853;SDS011;24606;51.992;4.198;2022-08-19T23:02:52;0.68;;;0.30;;
38853;SDS011;24606;51.992;4.198;2022-08-19T23:07:55;0.88;;;0.25;;
38853;SDS011;24606;51.992;4.198;2022-08-19T23:12:59;0.43;;;0.35;;
38853;SDS011;24606;51.992;4.198;2022-08-19T23:18:02;0.95;;;0.30;;
38853;SDS011;24606;51.992;4.198;2022-08-19T23:23:05;1.02;;;0.40;;
38853;SDS011;24606;51.992;4.198;2022-08-19T23:28:10;1.45;;;0.55;;
38853;SDS011;24606;51.992;4.198;2022-08-19T23:33:31;0.50;;;0.30;;
38853;SDS011;24606;51.992;4.198;2022-08-19T23:38:34;1.20;;;0.40;;
38853;SDS011;24606;51.992;4.198;2022-08-19T23:43:38;1.73;;;0.40;;
38853;SDS011;24606;51.992;4.198;2022-08-19T23:48:41;1.08;;;0.40;;
38853;SDS011;24606;51.992;4.198;2022-08-19T23:53:43;1.48;;;0.60;;
38853;SDS011;24606;51.992;4.198;2022-08-19T23:58:46;2.85;;;0.90;;
